Latest Weather Observations for Marion Reef

IDQ60801

Issued at 9:05 pm EST Sunday 20 April 2014 (issued every 30 minutes, with the page automatically refreshed every 10 minutes)

About weather observations | Map of weather stations | Latest weather observations for QLD | Other Formats
Station Details ID: 200704 Name: MARION REEF Lat: -19.10 Lon: 152.39 Height: 2.0 m
Data from the previous 72 hours. | See also: Recent months for locations in Queensland
Date/Time
EST
Temp
°C
App
Temp
°C
Dew
Point
Rel
Hum
%
Delta-T
°C
Wind Press
QNH
hPa
Press
MSL
hPa
Rain
since 9 am
mm
Dir
 
Spd
km/h
Gust
km/h
Spd
kts
Gust
kts
20/09:00pm 26.0 - - - - E 35 41 19 22 1016.6 1016.4 -
20/08:30pm 26.0 - - - - ESE 33 41 18 22 1016.5 - -
20/08:00pm 26.0 - - - - ESE 32 39 17 21 1016.3 1016.3 -
20/07:30pm 26.1 - - - - ESE 33 39 18 21 1016.0 - -
20/07:00pm 26.1 - - - - ESE 32 37 17 20 1015.6 1015.5 -
20/06:30pm 25.9 - - - - E 32 35 17 19 1015.2 - -
20/06:00pm 25.9 - - - - ESE 32 39 17 21 1014.9 1014.8 -
20/05:30pm 26.0 - - - - ESE 32 39 17 21 1014.6 - -
20/05:00pm 26.1 - - - - ESE 32 37 17 20 1014.3 1014.3 -
20/04:30pm 26.0 - - - - SE 30 35 16 19 1014.0 - -
20/04:00pm 26.0 - - - - ESE 32 37 17 20 1013.8 1013.7 -
20/03:30pm 26.0 - - - - ESE 30 35 16 19 1013.6 - -
20/03:00pm 26.0 - - - - ESE 30 39 16 21 1013.4 1013.4 -
20/02:30pm 26.0 - - - - ESE 30 35 16 19 1013.4 - -
20/02:00pm 25.9 - - - - ESE 33 39 18 21 1013.4 1013.3 -
20/01:30pm 26.1 - - - - ESE 32 35 17 19 1013.5 - -
20/01:00pm 26.0 - - - - ESE 33 39 18 21 1013.7 1013.6 -
20/12:30pm 25.8 - - - - ESE 35 43 19 23 1014.1 - -
20/12:00pm 26.0 - - - - ESE 33 41 18 22 1014.3 1014.2 -
20/11:30am 25.9 - - - - ESE 35 43 19 23 1014.9 - -
20/11:00am 26.0 - - - - ESE 35 41 19 22 1015.2 1015.0 -
20/10:30am 26.1 - - - - ESE 33 39 18 21 1015.5 - -
20/10:00am 26.1 - - - - ESE 35 41 19 22 1015.8 1015.6 -
20/09:30am 26.1 - - - - ESE 35 43 19 23 1015.9 - -
20/09:00am 26.0 - - - - ESE 35 43 19 23 1015.8 1015.7 -
20/08:30am 25.9 - - - - ESE 35 41 19 22 1015.6 - -
20/08:00am 26.0 - - - - ESE 33 37 18 20 1015.5 1015.4 -
20/07:30am 25.7 - - - - ESE 33 39 18 21 1015.3 - -
20/07:00am 25.7 - - - - ESE 32 39 17 21 1015.0 1015.0 -
20/06:30am 25.8 - - - - ESE 32 37 17 20 1014.7 - -
20/06:00am 25.6 - - - - E 33 39 18 21 1014.4 1014.3 -
20/05:30am 25.6 - - - - ESE 32 37 17 20 1014.1 - -
20/05:00am 25.7 - - - - ESE 30 35 16 19 1013.9 1013.8 -
20/04:30am 25.8 - - - - ESE 28 35 15 19 1013.8 - -
20/04:00am 25.6 - - - - E 30 35 16 19 1013.6 1013.5 -
20/03:30am 25.6 - - - - E 28 33 15 18 1013.6 - -
20/03:00am 25.7 - - - - E 32 37 17 20 1013.7 1013.6 -
20/02:30am 25.7 - - - - ESE 30 33 16 18 1013.8 - -
20/02:00am 25.6 - - - - E 32 37 17 20 1013.8 1013.7 -
20/01:30am 25.6 - - - - E 32 35 17 19 1014.0 - -
20/01:00am 25.6 - - - - E 30 35 16 19 1014.2 1014.1 -
20/12:30am 25.8 - - - - E 32 35 17 19 1014.4 - -
20/12:00am 25.6 - - - - E 30 35 16 19 1014.7 1014.6 -
 
Date/Time
EST
Temp
°C
App
Temp
°C
Dew
Point
Rel
Hum
%
Delta-T
°C
Wind Press
QNH
hPa
Press
MSL
hPa
Rain
since 9 am
mm
Dir
 
Spd
km/h
Gust
km/h
Spd
kts
Gust
kts
19/11:30pm 25.7 - - - - E 32 35 17 19 1014.6 - -
19/11:00pm 25.6 - - - - E 32 37 17 20 1014.9 1014.7 -
19/10:30pm 25.8 - - - - E 32 37 17 20 1015.0 - -
19/10:00pm 25.8 - - - - ESE 32 37 17 20 1015.1 1015.0 -
19/09:30pm 25.9 - - - - ESE 30 37 16 20 1015.2 - -
19/09:00pm 25.7 - - - - ESE 28 33 15 18 1015.2 1015.2 -
19/08:30pm 25.8 - - - - ESE 28 33 15 18 1015.3 - -
19/08:00pm 25.7 - - - - ESE 28 35 15 19 1015.3 1015.2 -
19/07:30pm 25.8 - - - - ESE 28 33 15 18 1014.9 - -
19/07:00pm 25.8 - - - - ESE 30 32 16 17 1014.5 1014.5 -
19/06:30pm 25.7 - - - - ESE 32 39 17 21 1014.1 - -
19/06:00pm 25.9 - - - - SE 28 35 15 19 1013.8 1013.7 -
19/05:30pm 25.9 - - - - ESE 32 41 17 22 1013.8 - -
19/05:00pm 25.8 - - - - SE 32 37 17 20 1013.6 1013.5 -
19/04:30pm 26.0 - - - - ESE 28 32 15 17 1013.4 - -
19/04:00pm 25.9 - - - - ESE 26 35 14 19 1013.4 1013.4 -
19/03:30pm 25.8 - - - - ESE 26 30 14 16 1013.4 - -
19/03:00pm 25.9 - - - - SE 26 32 14 17 1013.5 1013.4 -
19/02:30pm 25.8 - - - - SE 24 33 13 18 1013.6 - -
19/02:00pm 25.8 - - - - SE 26 32 14 17 1013.7 1013.6 -
19/01:30pm 25.9 - - - - SE 24 30 13 16 1013.8 - -
19/01:00pm 25.8 - - - - SE 26 32 14 17 1014.0 1013.8 -
19/12:30pm 25.8 - - - - ESE 28 32 15 17 1014.2 - -
19/12:00pm 25.9 - - - - ESE 26 33 14 18 1014.6 1014.5 -
19/11:30am 25.8 - - - - SE 30 37 16 20 1014.9 - -
19/11:00am 25.8 - - - - SE 28 32 15 17 1015.3 1015.2 -
19/10:30am 25.9 - - - - ESE 24 28 13 15 1015.9 - -
19/10:00am 25.9 - - - - SE 26 30 14 16 1016.2 1016.0 -
19/09:30am 25.9 - - - - SE 26 30 14 16 1016.4 - -
19/09:00am 26.0 - - - - ESE 24 32 13 17 1016.6 1016.5 -
19/08:30am 25.9 - - - - ESE 24 32 13 17 1016.5 - -
19/08:00am 25.8 - - - - ESE 26 33 14 18 1016.3 1016.3 -
19/07:30am 25.8 - - - - ESE 26 32 14 17 1016.1 - -
19/07:00am 25.7 - - - - ESE 26 32 14 17 1015.9 1015.8 -
19/06:30am 25.6 - - - - ESE 28 33 15 18 1015.5 - -
19/06:00am 25.6 - - - - ESE 30 41 16 22 1015.2 1015.2 -
19/05:30am 25.6 - - - - ESE 28 33 15 18 1015.0 - -
19/05:00am 25.7 - - - - ESE 28 37 15 20 1014.7 1014.6 -
19/04:30am 25.8 - - - - ESE 28 35 15 19 1014.4 - -
19/04:00am 25.6 - - - - ESE 28 33 15 18 1014.5 1014.4 -
19/03:30am 25.6 - - - - ESE 28 33 15 18 1014.6 - -
19/03:00am 25.7 - - - - ESE 30 35 16 19 1014.8 1014.7 -
19/02:30am 25.6 - - - - ESE 28 32 15 17 1014.9 - -
19/02:00am 25.7 - - - - ESE 26 33 14 18 1015.0 1014.9 -
19/01:30am 25.6 - - - - ESE 26 32 14 17 1015.2 - -
19/01:00am 25.8 - - - - E 26 32 14 17 1015.4 1015.3 -
19/12:30am 25.7 - - - - ESE 26 32 14 17 1015.7 - -
19/12:00am 25.8 - - - - ESE 28 33 15 18 1016.1 1015.9 -
 
Date/Time
EST
Temp
°C
App
Temp
°C
Dew
Point
Rel
Hum
%
Delta-T
°C
Wind Press
QNH
hPa
Press
MSL
hPa
Rain
since 9 am
mm
Dir
 
Spd
km/h
Gust
km/h
Spd
kts
Gust
kts
18/11:30pm 25.8 - - - - ESE 26 33 14 18 1016.3 - -
18/11:00pm 25.8 - - - - ESE 26 30 14 16 1016.5 1016.3 -
18/10:30pm 25.9 - - - - ESE 26 30 14 16 1016.5 - -
18/10:00pm 25.9 - - - - ESE 24 32 13 17 1016.5 1016.4 -
18/09:30pm 25.8 - - - - ESE 28 33 15 18 1016.5 - -
18/09:00pm 25.9 - - - - ESE 26 32 14 17 1016.5 1016.4 -
18/08:30pm 26.0 - - - - ESE 24 30 13 16 1016.4 - -
18/08:00pm 26.1 - - - - ESE 26 32 14 17 1016.2 1016.1 -
18/07:30pm 25.9 - - - - ESE 26 32 14 17 1015.8 - -
18/07:00pm 25.9 - - - - ESE 26 32 14 17 1015.3 1015.3 -
18/06:30pm 25.9 - - - - ESE 28 33 15 18 1014.9 - -
18/06:00pm 25.9 - - - - ESE 28 32 15 17 1014.6 1014.6 -
18/05:30pm 26.0 - - - - SE 28 35 15 19 1014.1 - -
18/05:00pm 26.0 - - - - ESE 26 32 14 17 1013.8 1013.7 -
18/04:30pm 26.1 - - - - ESE 26 32 14 17 1013.5 - -
18/04:00pm 26.1 - - - - SE 28 35 15 19 1013.3 1013.3 -
18/03:30pm 26.2 - - - - ESE 26 33 14 18 1013.1 - -
18/03:00pm 26.1 - - - - ESE 26 30 14 16 1012.9 1012.9 -
18/02:30pm 26.0 - - - - ESE 26 32 14 17 1012.9 - -
18/02:00pm 25.9 - - - - ESE 30 37 16 20 1013.2 1013.0 -
18/01:30pm 25.9 - - - - SE 28 33 15 18 1013.4 - -
18/01:00pm 25.9 - - - - ESE 30 35 16 19 1013.4 1013.4 -
18/12:30pm 25.9 - - - - ESE 26 30 14 16 1013.7 - -
18/12:00pm 26.0 - - - - ESE 30 37 16 20 1014.1 1013.9 -
18/11:30am 25.9 - - - - SE 30 35 16 19 1014.4 - -
18/11:00am 26.0 - - - - ESE 28 33 15 18 1014.8 1014.7 -
18/10:30am 25.8 - - - - ESE 28 35 15 19 1015.4 - -
18/10:00am 26.0 - - - - SE 30 35 16 19 1015.7 1015.5 -
18/09:30am 25.9 - - - - ESE 30 37 16 20 1015.8 - -
18/09:00am 25.9 - - - - ESE 30 33 16 18 1015.7 1015.6 -
18/08:30am 25.8 - - - - ESE 32 37 17 20 1015.5 - -
18/08:00am 25.8 - - - - ESE 30 35 16 19 1015.5 1015.4 -
18/07:30am 25.8 - - - - ESE 32 39 17 21 1015.3 - -
18/07:00am 25.9 - - - - ESE 30 35 16 19 1015.2 1015.2 -
18/06:30am 25.6 - - - - ESE 32 39 17 21 1015.0 - -
18/06:00am 25.6 - - - - ESE 32 37 17 20 1014.8 1014.7 -
18/05:30am 25.7 - - - - ESE 32 39 17 21 1014.6 - -
18/05:00am 25.8 - - - - ESE 33 39 18 21 1014.3 1014.2 -
18/04:30am 25.7 - - - - ESE 32 37 17 20 1014.2 - -
18/04:00am 25.7 - - - - E 32 37 17 20 1014.2 1014.1 -
18/03:30am 25.8 - - - - ESE 32 39 17 21 1014.3 - -
18/03:00am 25.8 - - - - E 32 37 17 20 1014.4 1014.3 -
18/02:30am 25.7 - - - - ESE 33 39 18 21 1014.6 - -
18/02:00am 25.8 - - - - ESE 32 35 17 19 1014.8 1014.8 -
18/01:30am 26.0 - - - - ESE 32 37 17 20 1014.9 - -
18/01:00am 25.9 - - - - E 28 35 15 19 1015.1 1014.9 -
18/12:30am 26.0 - - - - ESE 32 35 17 19 1015.4 - -
18/12:00am 26.1 - - - - E 32 35 17 19 1015.7 1015.5 -
 
Date/Time
EST
Temp
°C
App
Temp
°C
Dew
Point
Rel
Hum
%
Delta-T
°C
Wind Press
QNH
hPa
Press
MSL
hPa
Rain
since 9 am
mm
Dir
 
Spd
km/h
Gust
km/h
Spd
kts
Gust
kts
17/11:30pm 26.1 - - - - E 28 35 15 19 1016.1 - -
17/11:00pm 26.1 - - - - ESE 28 35 15 19 1016.5 1016.3 -
17/10:30pm 26.1 - - - - ESE 32 39 17 21 1016.5 - -
17/10:00pm 26.2 - - - - ESE 32 37 17 20 1016.5 1016.4 -
17/09:30pm 26.1 - - - - ESE 32 37 17 20 1016.7 - -

Other Formats:

Comma delimited format used in spreadsheet applications
http://www.bom.gov.au/fwo/IDQ60801/IDQ60801.94298.axf

JavaScript Object Notation format (JSON) in row-major order
http://www.bom.gov.au/fwo/IDQ60801/IDQ60801.94298.json